Time;durP1;ratioP1;P1;durP2;ratioP2;P2;SDS_P1;SDS_P2;PMS_P1;PMS_P2;Temp;Humidity;BMP_temperature;BMP_pressure;BME280_temperature;BME280_humidity;BME280_pressure;Samples;Min_cycle;Max_cycle;Signal;HPM_P1;HPM_P2
2023/10/23 00:00:50;;;;;;;3.47;2.22;;;;;;;9.89;100.00;101180.88;5043864;28;20181;-82
2023/10/23 00:03:15;;;;;;;4.13;1.98;;;;;;;9.86;100.00;101176.59;5050406;28;20028;-82
2023/10/23 00:05:40;;;;;;;3.03;2.20;;;;;;;9.88;100.00;101176.56;5045223;28;20527;-82
2023/10/23 00:08:06;;;;;;;4.07;2.00;;;;;;;9.87;100.00;101180.06;5051704;28;20064;-83
2023/10/23 00:10:31;;;;;;;5.28;2.30;;;;;;;9.83;100.00;101180.97;5057924;28;20029;-82
2023/10/23 00:12:56;;;;;;;3.85;2.10;;;;;;;9.76;100.00;101182.81;5047751;28;20037;-81
2023/10/23 00:15:22;;;;;;;4.80;2.10;;;;;;;9.72;100.00;101191.56;5049360;28;20372;-82
2023/10/23 00:17:47;;;;;;;3.03;1.98;;;;;;;9.65;100.00;101187.34;5047499;28;20039;-82
2023/10/23 00:20:12;;;;;;;3.17;1.88;;;;;;;9.59;100.00;101190.91;5044009;28;20396;-82
2023/10/23 00:22:38;;;;;;;3.03;2.00;;;;;;;9.53;100.00;101178.00;5043709;28;20053;-82
2023/10/23 00:25:03;;;;;;;3.22;1.98;;;;;;;9.50;100.00;101180.66;5048555;28;20121;-82
2023/10/23 00:27:29;;;;;;;2.72;1.83;;;;;;;9.48;100.00;101182.44;5044232;28;20471;-82
2023/10/23 00:29:54;;;;;;;3.15;2.00;;;;;;;9.46;100.00;101186.81;5046835;28;20029;-82
2023/10/23 00:32:19;;;;;;;3.28;2.10;;;;;;;9.43;100.00;101185.09;5047967;28;20121;-82
2023/10/23 00:34:44;;;;;;;2.97;1.77;;;;;;;9.42;100.00;101183.38;5045678;28;20060;-82
2023/10/23 00:37:10;;;;;;;2.55;2.00;;;;;;;9.43;100.00;101182.50;5044466;28;20039;-82
2023/10/23 00:39:35;;;;;;;3.35;2.08;;;;;;;9.43;100.00;101179.91;5044496;28;20028;-82
2023/10/23 00:42:01;;;;;;;4.35;2.47;;;;;;;9.47;100.00;101178.97;5043637;28;20028;-82
2023/10/23 00:44:27;;;;;;;3.88;2.45;;;;;;;9.52;100.00;101184.09;5046836;28;20031;-82
2023/10/23 00:46:53;;;;;;;5.60;3.00;;;;;;;9.54;100.00;101185.78;5054335;28;20028;-82
2023/10/23 00:49:19;;;;;;;7.93;3.78;;;;;;;9.56;100.00;101186.59;5044592;28;20055;-82
2023/10/23 00:51:44;;;;;;;9.38;4.63;;;;;;;9.57;100.00;101185.72;5044151;28;20029;-82
2023/10/23 00:54:10;;;;;;;8.80;4.93;;;;;;;9.60;100.00;101182.25;5048862;28;20121;-82
2023/10/23 00:56:36;;;;;;;10.02;5.13;;;;;;;9.59;100.00;101174.44;5042834;28;20094;-82
2023/10/23 00:59:01;;;;;;;8.93;4.60;;;;;;;9.61;100.00;101175.28;5045803;28;20040;-82
2023/10/23 01:01:31;;;;;;;17.15;4.88;;;;;;;9.62;100.00;101190.88;5046024;28;20493;-82
2023/10/23 01:03:56;;;;;;;7.80;4.65;;;;;;;9.62;100.00;101188.28;5052045;28;20028;-82
2023/10/23 01:06:21;;;;;;;8.70;3.85;;;;;;;9.63;100.00;101189.13;5045950;28;20032;-82
2023/10/23 01:08:47;;;;;;;6.70;3.47;;;;;;;9.63;100.00;101197.78;5047192;28;20024;-82
2023/10/23 01:11:13;;;;;;;5.85;3.25;;;;;;;9.64;100.00;101193.44;5049313;28;20025;-82
2023/10/23 01:13:38;;;;;;;7.38;3.00;;;;;;;9.63;100.00;101197.78;5048502;28;20079;-82
2023/10/23 01:16:04;;;;;;;5.00;2.97;;;;;;;9.64;100.00;101196.91;5052499;28;20111;-82
2023/10/23 01:18:29;;;;;;;5.57;2.80;;;;;;;9.65;100.00;101203.78;5046090;28;20047;-83
2023/10/23 01:20:55;;;;;;;4.25;2.70;;;;;;;9.64;100.00;101199.50;5048453;28;20155;-82
2023/10/23 01:23:25;;;;;;;4.13;2.45;;;;;;;9.64;100.00;101201.22;5047128;28;20402;-82
2023/10/23 01:25:51;;;;;;;3.38;2.25;;;;;;;9.63;100.00;101202.97;5049372;28;20033;-82
2023/10/23 01:28:16;;;;;;;4.45;2.50;;;;;;;9.64;100.00;101207.28;5045460;28;20028;-82
2023/10/23 01:30:41;;;;;;;4.43;2.45;;;;;;;9.62;100.00;101208.19;5047531;28;20031;-82
2023/10/23 01:33:07;;;;;;;4.05;2.42;;;;;;;9.63;100.00;101207.28;5048569;28;20047;-82
2023/10/23 01:35:32;;;;;;;4.13;2.28;;;;;;;9.62;100.00;101208.19;5052868;28;20052;-82
2023/10/23 01:37:57;;;;;;;5.15;2.67;;;;;;;9.63;100.00;101215.09;5051845;28;20393;-82
2023/10/23 01:40:23;;;;;;;4.70;2.10;;;;;;;9.61;100.00;101211.66;5048424;28;20490;-82
2023/10/23 01:42:48;;;;;;;4.32;2.30;;;;;;;9.61;100.00;101203.88;5048303;28;20162;-82
2023/10/23 01:45:14;;;;;;;4.03;2.25;;;;;;;9.60;100.00;101199.56;5046653;28;20633;-82
2023/10/23 01:47:39;;;;;;;5.20;2.20;;;;;;;9.60;100.00;101196.94;5051702;28;20518;-82
2023/10/23 01:50:05;;;;;;;4.97;2.40;;;;;;;9.58;100.00;101197.00;5048384;28;20031;-82
2023/10/23 01:52:31;;;;;;;4.50;2.60;;;;;;;9.57;100.00;101192.66;5048025;28;20047;-82
2023/10/23 01:54:58;;;;;;;5.32;2.30;;;;;;;9.59;100.00;101197.84;5044278;28;20028;-82
2023/10/23 01:57:23;;;;;;;6.97;2.70;;;;;;;9.57;100.00;101193.50;5048280;28;20025;-82
2023/10/23 01:59:48;;;;;;;3.40;2.25;;;;;;;9.56;100.00;101199.59;5047485;28;20373;-82
2023/10/23 02:02:14;;;;;;;5.75;2.58;;;;;;;9.56;100.00;101191.78;5047708;28;20091;-82
2023/10/23 02:04:39;;;;;;;4.15;2.30;;;;;;;9.55;100.00;101205.69;5052750;28;20028;-82
2023/10/23 02:07:05;;;;;;;3.80;2.30;;;;;;;9.54;100.00;101201.38;5050625;28;20029;-82
2023/10/23 02:09:32;;;;;;;6.03;2.42;;;;;;;9.52;100.00;101195.34;5051674;28;20056;-82
2023/10/23 02:11:57;;;;;;;4.57;2.60;;;;;;;9.51;100.00;101198.81;5049971;28;20027;-82
2023/10/23 02:14:23;;;;;;;3.90;2.50;;;;;;;9.50;100.00;101202.31;5048890;28;20032;-82
2023/10/23 02:16:48;;;;;;;7.38;2.60;;;;;;;9.50;100.00;101204.03;5051601;28;20466;-82
2023/10/23 02:19:13;;;;;;;5.30;2.40;;;;;;;9.49;100.00;101203.19;5047369;28;20037;-82
2023/10/23 02:21:38;;;;;;;4.90;2.67;;;;;;;9.48;100.00;101203.22;5045632;28;20408;-82
2023/10/23 02:24:04;;;;;;;4.90;2.40;;;;;;;9.46;100.00;101208.41;5047921;28;20033;-82
2023/10/23 02:26:30;;;;;;;3.08;2.13;;;;;;;9.44;100.00;101206.75;5053240;28;20508;-82
2023/10/23 02:28:55;;;;;;;4.28;2.60;;;;;;;9.44;100.00;101217.13;5046207;28;20036;-82
2023/10/23 02:31:21;;;;;;;6.40;2.33;;;;;;;9.42;100.00;101209.34;5047703;28;20148;-82
2023/10/23 02:33:46;;;;;;;4.18;2.35;;;;;;;9.41;100.00;101218.00;5049324;28;20016;-82
2023/10/23 02:36:12;;;;;;;3.78;2.40;;;;;;;9.38;100.00;101221.53;5045041;28;20613;-82
2023/10/23 02:38:37;;;;;;;3.08;2.20;;;;;;;9.36;100.00;101230.22;5047314;28;20029;-82
2023/10/23 02:41:02;;;;;;;3.50;2.10;;;;;;;9.34;100.00;101226.78;5045967;28;20051;-82
2023/10/23 02:43:28;;;;;;;4.75;2.42;;;;;;;9.32;100.00;101233.75;5047512;28;20060;-82
2023/10/23 02:45:53;;;;;;;4.22;2.35;;;;;;;9.31;100.00;101227.66;5046506;28;21863;-82
2023/10/23 02:48:18;;;;;;;4.45;2.42;;;;;;;9.30;100.00;101236.38;5043808;28;20472;-82
2023/10/23 02:50:56;;;;;;;4.85;2.40;;;;;;;9.30;100.00;101233.78;5042431;28;20079;-82
2023/10/23 02:53:22;;;;;;;4.10;2.35;;;;;;;9.31;100.00;101234.63;5048471;28;20408;-82
2023/10/23 02:55:48;;;;;;;4.07;2.20;;;;;;;9.30;100.00;101230.28;5046368;28;20025;-82
2023/10/23 02:58:13;;;;;;;6.07;2.50;;;;;;;9.29;100.00;101236.38;5047056;28;20020;-82
2023/10/23 03:00:39;;;;;;;3.65;2.42;;;;;;;9.27;100.00;101232.06;5041127;28;20049;-83
2023/10/23 03:03:04;;;;;;;4.00;2.30;;;;;;;9.27;100.00;101231.22;5040673;28;21752;-82
2023/10/23 03:05:30;;;;;;;4.47;2.30;;;;;;;9.25;100.00;101239.00;5049296;28;20044;-82
2023/10/23 03:07:55;;;;;;;4.28;2.33;;;;;;;9.25;100.00;101233.81;5045780;28;20021;-82
2023/10/23 03:10:20;;;;;;;6.28;2.47;;;;;;;9.19;100.00;101233.91;5044343;28;20393;-82
2023/10/23 03:12:45;;;;;;;3.92;2.30;;;;;;;9.13;100.00;101230.53;5048956;28;20071;-82
2023/10/23 03:15:11;;;;;;;4.28;2.35;;;;;;;9.05;100.00;101239.28;5041476;28;20093;-82
2023/10/23 03:17:36;;;;;;;4.47;2.25;;;;;;;8.99;100.00;101230.72;5050375;28;20047;-82
2023/10/23 03:20:03;;;;;;;4.00;2.08;;;;;;;8.89;100.00;101228.22;5045234;28;20033;-82
2023/10/23 03:22:29;;;;;;;3.70;2.10;;;;;;;8.84;100.00;101232.63;5044612;28;20472;-82
2023/10/23 03:24:54;;;;;;;5.07;2.28;;;;;;;8.81;100.00;101230.06;5047784;28;20032;-82
2023/10/23 03:27:19;;;;;;;4.78;2.28;;;;;;;8.83;100.00;101232.63;5046417;28;20036;-82
2023/10/23 03:29:45;;;;;;;3.53;2.20;;;;;;;8.83;100.00;101236.09;5048929;28;20122;-82
2023/10/23 03:32:10;;;;;;;3.85;1.88;;;;;;;8.83;100.00;101230.91;5046580;28;20035;-82
2023/10/23 03:34:35;;;;;;;3.33;1.90;;;;;;;8.81;100.00;101235.25;5046081;28;20465;-82
2023/10/23 03:37:00;;;;;;;4.35;1.98;;;;;;;8.76;100.00;101240.50;5045293;28;20040;-82
2023/10/23 03:39:26;;;;;;;3.15;1.80;;;;;;;8.75;100.00;101236.19;5046187;28;20028;-82
2023/10/23 03:41:51;;;;;;;4.65;2.20;;;;;;;8.72;100.00;101240.53;5045369;28;20585;-82
2023/10/23 03:44:16;;;;;;;3.35;1.92;;;;;;;8.66;100.00;101236.28;5047382;28;20037;-82
2023/10/23 03:46:42;;;;;;;3.15;1.73;;;;;;;8.60;100.00;101239.81;5047156;28;20469;-82
2023/10/23 03:49:07;;;;;;;3.70;1.77;;;;;;;8.59;100.00;101245.03;5047882;28;20035;-82
2023/10/23 03:51:32;;;;;;;3.22;2.03;;;;;;;8.53;100.00;101245.09;5048668;28;20406;-82
2023/10/23 03:53:58;;;;;;;2.80;1.88;;;;;;;8.48;100.00;101245.13;5047566;28;20036;-82
2023/10/23 03:56:24;;;;;;;4.30;1.95;;;;;;;8.42;100.00;101237.38;5043347;28;20025;-81
2023/10/23 03:58:49;;;;;;;3.17;1.73;;;;;;;8.37;100.00;101247.81;5047197;28;20020;-82
2023/10/23 04:01:14;;;;;;;2.85;1.80;;;;;;;8.34;100.00;101243.53;5043139;28;20201;-82
2023/10/23 04:03:40;;;;;;;3.05;1.50;;;;;;;8.31;100.00;101238.38;5049637;28;20029;-82
2023/10/23 04:06:05;;;;;;;2.08;1.35;;;;;;;8.28;100.00;101247.91;5041436;28;20060;-82
2023/10/23 04:08:30;;;;;;;2.75;1.38;;;;;;;8.25;100.00;101251.38;5049121;28;20043;-82
2023/10/23 04:10:56;;;;;;;2.15;1.40;;;;;;;8.21;100.00;101247.09;5044675;28;20036;-82
2023/10/23 04:13:21;;;;;;;1.88;1.20;;;;;;;8.17;100.00;101253.19;5042703;28;20123;-82
2023/10/23 04:15:54;;;;;;;1.67;1.30;;;;;;;8.14;100.00;101256.66;5044790;28;20080;-82
2023/10/23 04:18:20;;;;;;;1.58;1.10;;;;;;;8.12;100.00;101254.97;5042376;28;20052;-82
2023/10/23 04:20:46;;;;;;;3.35;1.30;;;;;;;8.09;100.00;101253.25;5046927;28;20029;-82
2023/10/23 04:23:11;;;;;;;2.85;1.42;;;;;;;8.11;100.00;101258.41;5050071;28;20025;-82
2023/10/23 04:25:36;;;;;;;2.40;1.63;;;;;;;8.10;100.00;101249.81;5051644;28;20528;-82
2023/10/23 04:28:03;;;;;;;3.40;1.50;;;;;;;8.08;100.00;101248.94;5039185;28;20030;-82
2023/10/23 04:30:28;;;;;;;2.65;1.48;;;;;;;8.05;100.00;101249.81;5044560;28;20044;-82
2023/10/23 04:32:54;;;;;;;1.73;1.30;;;;;;;8.05;100.00;101246.38;5045885;28;20025;-82
2023/10/23 04:35:19;;;;;;;1.85;1.50;;;;;;;8.05;100.00;101247.22;5053201;28;20032;-82
2023/10/23 04:37:44;;;;;;;2.35;1.27;;;;;;;8.02;100.00;101252.47;5042339;28;20021;-82
2023/10/23 04:40:10;;;;;;;1.83;1.40;;;;;;;8.02;100.00;101257.63;5042848;28;20106;-82
2023/10/23 04:42:35;;;;;;;2.40;1.27;;;;;;;7.99;100.00;101249.00;5045113;28;20044;-82
2023/10/23 04:45:01;;;;;;;2.22;1.40;;;;;;;7.94;100.00;101250.81;5045619;28;20119;-82
2023/10/23 04:47:26;;;;;;;2.30;1.10;;;;;;;7.90;100.00;101256.00;5039596;28;20056;-82
2023/10/23 04:49:51;;;;;;;1.70;1.20;;;;;;;7.87;100.00;101253.44;5045410;28;20032;-82
2023/10/23 04:52:17;;;;;;;1.70;1.00;;;;;;;7.88;100.00;101246.50;5044662;28;20028;-82
2023/10/23 04:54:42;;;;;;;1.70;1.20;;;;;;;7.86;100.00;101248.25;5042255;28;20068;-82
2023/10/23 04:57:08;;;;;;;1.40;1.00;;;;;;;7.85;100.00;101238.78;5050371;28;20413;-82
2023/10/23 04:59:35;;;;;;;2.03;1.20;;;;;;;7.85;100.00;101250.00;5063566;28;20024;-82
2023/10/23 05:02:00;;;;;;;1.15;0.98;;;;;;;7.82;100.00;101243.97;5041734;28;20051;-82
2023/10/23 05:04:31;;;;;;;1.65;1.08;;;;;;;7.79;100.00;101246.59;5048881;28;20119;-82
2023/10/23 05:06:57;;;;;;;2.17;1.20;;;;;;;7.77;100.00;101244.00;5049062;28;20032;-82
2023/10/23 05:09:22;;;;;;;3.90;1.30;;;;;;;7.73;100.00;101235.41;5049955;28;20025;-82
2023/10/23 05:11:47;;;;;;;2.13;1.30;;;;;;;7.71;100.00;101236.28;5041625;28;20037;-82
2023/10/23 05:14:13;;;;;;;3.80;1.40;;;;;;;7.72;100.00;101235.41;5050117;28;20027;-82
2023/10/23 05:16:38;;;;;;;1.80;1.30;;;;;;;7.70;100.00;101248.38;5042387;28;20041;-82
2023/10/23 05:19:03;;;;;;;2.03;1.33;;;;;;;7.68;100.00;101249.25;5046860;28;20029;-82
2023/10/23 05:21:28;;;;;;;2.33;1.17;;;;;;;7.64;100.00;101256.19;5046707;28;20344;-82
2023/10/23 05:23:54;;;;;;;3.50;1.25;;;;;;;7.58;100.00;101249.34;5050443;28;20047;-82
2023/10/23 05:26:20;;;;;;;1.60;1.10;;;;;;;7.51;100.00;101244.22;5045251;28;20063;-81
2023/10/23 05:28:45;;;;;;;2.63;1.00;;;;;;;7.44;100.00;101249.41;5047393;28;20032;-82
2023/10/23 05:31:10;;;;;;;1.83;1.10;;;;;;;7.40;100.00;101246.84;5043416;28;20517;-82
2023/10/23 05:33:36;;;;;;;1.77;1.10;;;;;;;7.36;100.00;101247.75;5049171;28;20041;-82
2023/10/23 05:36:06;;;;;;;1.60;1.00;;;;;;;7.30;100.00;101240.88;5047126;28;20033;-82
2023/10/23 05:38:32;;;;;;;5.03;1.00;;;;;;;7.26;100.00;101246.94;5047490;28;20025;-82
2023/10/23 05:40:58;;;;;;;2.55;1.10;;;;;;;7.22;100.00;101242.63;5050778;28;20017;-82
2023/10/23 05:43:26;;;;;;;5.95;1.40;;;;;;;7.19;100.00;101247.81;5048129;28;20025;-82
2023/10/23 05:45:51;;;;;;;2.45;1.20;;;;;;;7.16;100.00;101247.84;5053839;28;20040;-82
2023/10/23 05:48:17;;;;;;;4.00;1.45;;;;;;;7.16;100.00;101247.84;5051464;28;20025;-82
2023/10/23 05:50:42;;;;;;;3.60;1.73;;;;;;;7.19;100.00;101247.81;5050679;28;20063;-82
2023/10/23 05:53:07;;;;;;;2.92;1.65;;;;;;;7.20;100.00;101244.34;5053307;28;20376;-82
2023/10/23 05:55:36;;;;;;;4.15;1.60;;;;;;;7.21;100.00;101256.44;5050024;28;20037;-82
2023/10/23 05:58:02;;;;;;;4.22;1.55;;;;;;;7.21;100.00;101253.84;5048449;28;20044;-82
2023/10/23 06:00:27;;;;;;;2.20;1.50;;;;;;;7.21;100.00;101256.44;5048326;28;20045;-82
2023/10/23 06:02:53;;;;;;;2.45;1.50;;;;;;;7.25;100.00;101258.16;5051865;28;20086;-82
2023/10/23 06:05:18;;;;;;;2.67;1.60;;;;;;;7.27;100.00;101261.59;5050676;28;20070;-82
2023/10/23 06:07:43;;;;;;;3.15;1.40;;;;;;;7.28;100.00;101252.97;5050670;28;20047;-82
2023/10/23 06:10:09;;;;;;;2.08;1.45;;;;;;;7.28;100.00;101253.81;5048133;28;20029;-82
2023/10/23 06:12:34;;;;;;;2.08;1.48;;;;;;;7.28;100.00;101250.38;5051725;28;20119;-82
2023/10/23 06:14:59;;;;;;;1.67;1.40;;;;;;;7.23;100.00;101253.00;5051188;28;20048;-82
2023/10/23 06:17:25;;;;;;;2.63;1.20;;;;;;;7.23;100.00;101254.69;5048094;28;20028;-82
2023/10/23 06:19:51;;;;;;;2.80;1.20;;;;;;;7.25;100.00;101259.03;5049089;28;20033;-82
2023/10/23 06:22:16;;;;;;;1.77;1.30;;;;;;;7.21;100.00;101264.19;5051831;28;20035;-82
2023/10/23 06:24:41;;;;;;;2.83;1.40;;;;;;;7.16;100.00;101261.63;5053113;28;20025;-82
2023/10/23 06:27:06;;;;;;;1.70;1.30;;;;;;;7.13;100.00;101259.94;5047267;28;20063;-82
2023/10/23 06:29:32;;;;;;;1.63;1.20;;;;;;;7.09;100.00;101255.63;5045642;28;20033;-82
2023/10/23 06:31:57;;;;;;;1.70;1.30;;;;;;;7.07;100.00;101256.53;5046789;28;20025;-82
2023/10/23 06:34:23;;;;;;;2.40;1.30;;;;;;;7.06;100.00;101260.81;5052015;28;20047;-82
2023/10/23 06:36:48;;;;;;;1.40;1.10;;;;;;;7.03;100.00;101253.06;5046470;28;20033;-82
2023/10/23 06:39:13;;;;;;;2.35;1.42;;;;;;;7.01;100.00;101257.38;5047066;28;20456;-82
2023/10/23 06:41:38;;;;;;;1.98;1.40;;;;;;;7.00;100.00;101258.28;5044763;28;20029;-82
2023/10/23 06:44:04;;;;;;;2.10;1.40;;;;;;;7.01;100.00;101259.97;5048006;28;20028;-82
2023/10/23 06:46:29;;;;;;;2.00;1.48;;;;;;;7.03;100.00;101268.59;5051819;28;20037;-82
2023/10/23 06:48:55;;;;;;;5.13;1.40;;;;;;;7.06;100.00;101263.41;5052685;28;20029;-82
2023/10/23 06:51:20;;;;;;;2.80;1.63;;;;;;;7.06;100.00;101258.22;5047846;28;20068;-82
2023/10/23 06:53:45;;;;;;;3.05;1.35;;;;;;;7.08;100.00;101266.84;5047252;28;20060;-82
2023/10/23 06:56:10;;;;;;;4.40;1.45;;;;;;;7.12;100.00;101259.94;5044616;28;20056;-81
2023/10/23 06:58:36;;;;;;;2.50;1.58;;;;;;;7.18;100.00;101253.84;5051900;28;20039;-82
2023/10/23 07:01:08;;;;;;;2.67;1.75;;;;;;;7.22;100.00;101253.84;5044417;28;20093;-82
2023/10/23 07:03:34;;;;;;;2.60;1.63;;;;;;;7.25;100.00;101252.97;5048258;28;20048;-82
2023/10/23 07:06:03;;;;;;;2.90;1.80;;;;;;;7.28;100.00;101255.53;5048108;28;20033;-82
2023/10/23 07:08:28;;;;;;;2.90;2.05;;;;;;;7.32;100.00;101243.44;5050825;28;20021;-82
2023/10/23 07:10:54;;;;;;;3.33;2.15;;;;;;;7.36;100.00;101250.31;5047154;28;20364;-82
2023/10/23 07:13:19;;;;;;;2.53;1.90;;;;;;;7.40;100.00;101258.06;5047221;28;20025;-82
2023/10/23 07:15:44;;;;;;;2.63;1.95;;;;;;;7.44;100.00;101258.88;5049910;28;20468;-82
2023/10/23 07:18:10;;;;;;;3.08;2.15;;;;;;;7.48;100.00;101254.56;5050990;28;20032;-82
2023/10/23 07:20:36;;;;;;;3.90;2.30;;;;;;;7.51;100.00;101254.56;5057801;28;20040;-81
2023/10/23 07:23:01;;;;;;;2.60;2.05;;;;;;;7.55;100.00;101253.66;5053741;28;20036;-82
2023/10/23 07:25:26;;;;;;;3.92;2.40;;;;;;;7.58;100.00;101254.50;5048866;28;20367;-82
2023/10/23 07:27:52;;;;;;;3.85;2.60;;;;;;;7.64;100.00;101248.44;5048065;28;20021;-82
2023/10/23 07:30:17;;;;;;;4.57;2.47;;;;;;;7.68;100.00;101252.72;5051187;28;20433;-82
2023/10/23 07:32:42;;;;;;;5.28;2.78;;;;;;;7.71;100.00;101252.66;5048556;28;20064;-82
2023/10/23 07:35:08;;;;;;;5.15;2.80;;;;;;;7.75;100.00;101244.03;5046748;28;20440;-82
2023/10/23 07:37:34;;;;;;;5.28;2.83;;;;;;;7.80;100.00;101246.56;5050134;28;20028;-82
2023/10/23 07:40:04;;;;;;;6.15;2.83;;;;;;;7.84;100.00;101250.00;5055146;28;20029;-82
2023/10/23 07:42:30;;;;;;;5.55;2.88;;;;;;;7.88;100.00;101251.69;5054806;28;20407;-82
2023/10/23 07:44:55;;;;;;;3.92;2.67;;;;;;;7.93;100.00;101252.53;5045202;28;20025;-82
2023/10/23 07:47:21;;;;;;;4.65;2.95;;;;;;;7.97;100.00;101254.22;5058031;28;20139;-82
2023/10/23 07:49:46;;;;;;;4.72;2.70;;;;;;;8.01;100.00;101255.91;5050917;28;20029;-82
2023/10/23 07:52:11;;;;;;;5.88;3.03;;;;;;;8.07;100.00;101248.94;5051669;28;20035;-82
2023/10/23 07:54:36;;;;;;;4.20;3.05;;;;;;;8.11;100.00;101255.81;5049577;28;20048;-82
2023/10/23 07:57:02;;;;;;;5.43;3.08;;;;;;;8.15;100.00;101257.53;5050719;28;20464;-82
2023/10/23 07:59:27;;;;;;;6.05;3.08;;;;;;;8.19;100.00;101270.44;5050721;28;20036;-82
2023/10/23 08:01:52;;;;;;;5.30;2.70;;;;;;;8.23;100.00;101263.47;5051568;28;20116;-82
2023/10/23 08:04:18;;;;;;;4.97;2.95;;;;;;;8.27;100.00;101260.00;5048490;28;20029;-81
2023/10/23 08:06:44;;;;;;;5.55;3.30;;;;;;;8.33;100.00;101262.53;5047905;28;20021;-82
2023/10/23 08:09:10;;;;;;;5.70;3.10;;;;;;;8.40;100.00;101257.28;5052507;28;20611;-82
2023/10/23 08:11:36;;;;;;;5.75;3.13;;;;;;;8.44;100.00;101251.19;5051526;28;20398;-82
2023/10/23 08:14:01;;;;;;;5.38;3.40;;;;;;;8.49;100.00;101247.72;5052027;28;20065;-82
2023/10/23 08:16:26;;;;;;;5.78;3.15;;;;;;;8.57;100.00;101242.44;5053626;28;20024;-82
2023/10/23 08:18:52;;;;;;;6.60;3.30;;;;;;;8.63;100.00;101239.78;5051575;28;20029;-82
2023/10/23 08:21:17;;;;;;;6.30;3.50;;;;;;;8.71;100.00;101236.25;5053959;28;20156;-82
2023/10/23 08:23:46;;;;;;;6.05;3.15;;;;;;;8.75;100.00;101236.19;5052975;28;20052;-82
2023/10/23 08:26:11;;;;;;;5.90;2.92;;;;;;;8.81;100.00;101232.66;5054643;28;20102;-82
2023/10/23 08:28:37;;;;;;;6.75;3.38;;;;;;;8.86;100.00;101235.19;5054548;28;20060;-82
2023/10/23 08:31:03;;;;;;;7.28;3.15;;;;;;;8.91;100.00;101231.66;5054627;28;20033;-82
2023/10/23 08:33:28;;;;;;;6.32;3.40;;;;;;;8.96;100.00;101237.66;5051914;28;20024;-82
2023/10/23 08:35:53;;;;;;;6.55;3.10;;;;;;;9.01;100.00;101235.00;5053998;28;20025;-82
2023/10/23 08:38:19;;;;;;;6.22;2.97;;;;;;;9.06;100.00;101237.53;5045146;28;20106;-82
2023/10/23 08:40:44;;;;;;;5.32;3.10;;;;;;;9.12;100.00;101240.06;5049055;28;20029;-82
2023/10/23 08:43:10;;;;;;;5.25;3.03;;;;;;;9.17;100.00;101243.47;5046527;28;20097;-82
2023/10/23 08:45:35;;;;;;;5.13;3.00;;;;;;;9.22;100.00;101241.63;5050970;28;20547;-82
2023/10/23 08:48:01;;;;;;;6.47;3.28;;;;;;;9.27;100.00;101241.59;5044734;28;20033;-81
2023/10/23 08:50:27;;;;;;;4.93;2.85;;;;;;;9.32;100.00;101244.97;5053207;28;20048;-82
2023/10/23 08:52:58;;;;;;;5.47;3.05;;;;;;;9.37;100.00;101253.56;5053182;28;20067;-82
2023/10/23 08:55:25;;;;;;;5.38;3.33;;;;;;;9.41;100.00;101247.44;5049391;28;20033;-82
2023/10/23 08:57:53;;;;;;;5.57;2.92;;;;;;;9.48;100.00;101250.81;5044383;28;20478;-82
2023/10/23 09:00:22;;;;;;;11.68;3.30;;;;;;;9.57;100.00;101249.81;5049851;28;20064;-82
2023/10/23 09:02:49;;;;;;;5.22;2.95;;;;;;;9.64;100.00;101255.78;5045219;28;20560;-82
2023/10/23 09:05:14;;;;;;;8.27;3.17;;;;;;;9.72;100.00;101253.94;5048698;28;20029;-82
2023/10/23 09:07:40;;;;;;;5.15;3.30;;;;;;;9.79;100.00;101250.34;5049122;28;20171;-82
2023/10/23 09:10:05;;;;;;;6.07;3.15;;;;;;;9.85;100.00;101250.25;5044178;28;20488;-82
2023/10/23 09:12:35;;;;;;;6.82;3.03;;;;;;;9.92;100.00;101244.94;5043416;28;20040;-82
2023/10/23 09:15:17;;;;;;;4.78;3.15;;;;;;;9.98;100.00;101239.66;5044663;28;20029;-82
2023/10/23 09:17:45;;;;;;;7.43;3.28;;;;;;;10.03;100.00;101232.63;5044576;28;20155;-82
2023/10/23 09:20:20;;;;;;;4.95;2.97;;;;;;;10.09;100.00;101232.50;5041107;28;20061;-82
2023/10/23 09:22:49;;;;;;;6.05;2.97;;;;;;;10.15;100.00;101232.41;5040026;28;20475;-82
2023/10/23 09:25:24;;;;;;;5.93;3.08;;;;;;;10.18;100.00;101237.56;5042878;28;20033;-82
2023/10/23 09:27:50;;;;;;;7.20;2.97;;;;;;;10.23;100.00;101236.63;5044539;28;20082;-82
2023/10/23 09:30:21;;;;;;;6.00;3.20;;;;;;;10.27;100.00;101235.66;5043005;28;20053;-82
2023/10/23 09:32:55;;;;;;;6.40;2.95;;;;;;;10.31;100.00;101232.13;5045317;28;20491;-82
2023/10/23 09:35:23;;;;;;;5.35;2.92;;;;;;;10.35;100.00;101226.00;5043057;28;20060;-86
2023/10/23 09:37:49;;;;;;;6.60;3.08;;;;;;;10.39;100.00;101219.91;5040465;28;20388;-82
2023/10/23 09:40:16;;;;;;;6.55;3.10;;;;;;;10.44;100.00;101222.41;5045351;28;20025;-82
2023/10/23 09:42:42;;;;;;;6.85;3.00;;;;;;;10.48;100.00;101224.91;5040063;28;20017;-83
2023/10/23 09:45:09;;;;;;;7.18;3.20;;;;;;;10.53;100.00;101223.97;5044849;28;20032;-82
2023/10/23 09:47:35;;;;;;;7.35;3.20;;;;;;;10.59;100.00;101218.66;5041213;28;20111;-82
2023/10/23 09:50:03;;;;;;;5.63;3.03;;;;;;;10.63;100.00;101207.28;5041830;28;20033;-82
2023/10/23 09:52:32;;;;;;;6.07;3.10;;;;;;;10.68;100.00;101204.56;5046371;28;20025;-82
2023/10/23 09:55:07;;;;;;;5.93;2.90;;;;;;;10.74;100.00;101204.47;5043547;28;20017;-82
2023/10/23 09:57:34;;;;;;;5.63;2.72;;;;;;;10.76;100.00;101203.53;5044010;28;20464;-82
2023/10/23 10:00:05;;;;;;;6.45;2.70;;;;;;;10.82;100.00;101209.50;5007503;28;1045452;-81
2023/10/23 10:02:35;;;;;;;7.87;3.03;;;;;;;10.87;100.00;101199.88;5043880;28;20488;-82
2023/10/23 10:05:08;;;;;;;6.00;2.80;;;;;;;10.90;100.00;101199.81;5045528;28;20033;-82
2023/10/23 10:08:02;;;;;;;8.70;2.83;;;;;;;10.96;100.00;101197.03;5041278;28;20094;-82
2023/10/23 10:10:29;;;;;;;5.15;2.60;;;;;;;11.02;100.00;101196.94;5044227;28;20024;-82
2023/10/23 10:12:55;;;;;;;5.18;2.53;;;;;;;11.08;100.00;101193.31;5044870;28;20029;-82
2023/10/23 10:15:22;;;;;;;9.18;3.05;;;;;;;11.14;100.00;101192.31;5042245;28;20472;-82
2023/10/23 10:17:49;;;;;;;7.93;3.08;;;;;;;11.18;100.00;101191.38;5051715;28;20024;-82
2023/10/23 10:20:16;;;;;;;7.57;2.95;;;;;;;11.24;100.00;101193.84;5049392;28;20099;-82
2023/10/23 10:22:43;;;;;;;6.32;3.13;;;;;;;11.29;100.00;101186.75;5050777;28;20035;-82
2023/10/23 10:25:09;;;;;;;7.07;2.80;;;;;;;11.34;100.00;101190.13;5057263;28;20491;-82
2023/10/23 10:27:35;;;;;;;6.28;3.03;;;;;;;11.37;100.00;101182.25;5048910;28;20040;-82
2023/10/23 10:30:04;;;;;;;8.00;3.30;;;;;;;11.42;100.00;101181.28;5044581;28;20024;-82
2023/10/23 10:32:32;;;;;;;6.75;2.88;;;;;;;11.44;100.00;101174.28;5044376;28;20039;-82
2023/10/23 10:35:03;;;;;;;6.70;2.88;;;;;;;11.46;100.00;101173.34;5048812;28;20383;-82
2023/10/23 10:37:30;;;;;;;6.93;3.00;;;;;;;11.52;100.00;101169.75;5043455;28;20017;-82
2023/10/23 10:39:55;;;;;;;8.02;2.83;;;;;;;11.58;100.00;101169.59;5040950;28;20051;-82
2023/10/23 10:42:22;;;;;;;6.68;2.88;;;;;;;11.61;100.00;101164.31;5042656;28;20017;-82
2023/10/23 10:44:59;;;;;;;9.30;3.20;;;;;;;11.64;100.00;101158.16;5039640;28;20025;-82
2023/10/23 10:47:46;;;;;;;7.45;3.25;;;;;;;11.71;100.00;101156.25;5043196;28;20104;-82
2023/10/23 10:50:12;;;;;;;8.88;3.13;;;;;;;11.77;100.00;101150.91;5044824;28;20089;-82
2023/10/23 10:52:39;;;;;;;8.07;2.85;;;;;;;11.81;100.00;101142.94;5049190;28;20031;-82
2023/10/23 10:55:09;;;;;;;6.20;2.67;;;;;;;11.87;100.00;101141.94;5056753;28;20422;-82
2023/10/23 10:57:39;;;;;;;5.93;3.15;;;;;;;11.94;100.00;101142.63;5050035;28;20033;-82
2023/10/23 11:00:05;;;;;;;6.57;3.10;;;;;;;11.99;100.00;101141.63;5057888;28;20078;-83
2023/10/23 11:02:31;;;;;;;8.30;3.20;;;;;;;12.05;100.00;101130.16;5047313;28;20027;-83
2023/10/23 11:04:56;;;;;;;6.18;2.78;;;;;;;12.11;100.00;101127.41;5039701;28;20033;-81
2023/10/23 11:07:23;;;;;;;8.65;2.88;;;;;;;12.14;100.00;101129.06;5042692;28;20086;-83
2023/10/23 11:09:49;;;;;;;8.48;2.60;;;;;;;12.17;100.00;101118.56;5043205;28;20032;-83
2023/10/23 11:12:17;;;;;;;7.68;2.70;;;;;;;12.18;100.00;101115.03;5038436;28;20032;-83
2023/10/23 11:14:42;;;;;;;7.13;2.90;;;;;;;12.21;100.00;101109.75;5040840;28;20106;-83
2023/10/23 11:17:08;;;;;;;10.10;3.40;;;;;;;12.25;100.00;101116.59;5041548;28;20379;-83
2023/10/23 11:19:33;;;;;;;7.35;2.80;;;;;;;12.26;100.00;101107.88;5042610;28;20049;-83